sensor_id;sensor_type;location;lat;lon;timestamp;P1;durP1;ratioP1;P2;durP2;ratioP2
38683;SDS011;24910;53.248;-6.134;2022-12-18T00:00:23;80.20;;;35.88;;
38683;SDS011;24910;53.248;-6.134;2022-12-18T00:05:21;79.55;;;34.25;;
38683;SDS011;24910;53.248;-6.134;2022-12-18T00:07:50;81.15;;;34.95;;
38683;SDS011;24910;53.248;-6.134;2022-12-18T00:10:19;78.95;;;35.03;;
38683;SDS011;24910;53.248;-6.134;2022-12-18T00:12:48;72.53;;;34.20;;
38683;SDS011;24910;53.248;-6.134;2022-12-18T00:15:17;67.78;;;32.70;;
38683;SDS011;24910;53.248;-6.134;2022-12-18T00:17:48;61.75;;;29.63;;
38683;SDS011;24910;53.248;-6.134;2022-12-18T00:20:17;57.90;;;28.60;;
38683;SDS011;24910;53.248;-6.134;2022-12-18T00:22:52;45.08;;;23.40;;
38683;SDS011;24910;53.248;-6.134;2022-12-18T00:25:22;55.80;;;26.30;;
38683;SDS011;24910;53.248;-6.134;2022-12-18T00:27:51;49.30;;;25.73;;
38683;SDS011;24910;53.248;-6.134;2022-12-18T00:30:20;51.85;;;25.58;;
38683;SDS011;24910;53.248;-6.134;2022-12-18T00:32:51;53.30;;;27.13;;
38683;SDS011;24910;53.248;-6.134;2022-12-18T00:35:20;53.00;;;27.42;;
38683;SDS011;24910;53.248;-6.134;2022-12-18T00:37:49;52.92;;;27.05;;
38683;SDS011;24910;53.248;-6.134;2022-12-18T00:40:18;54.45;;;28.35;;
38683;SDS011;24910;53.248;-6.134;2022-12-18T00:42:47;48.33;;;27.08;;
38683;SDS011;24910;53.248;-6.134;2022-12-18T00:45:25;54.40;;;29.02;;
38683;SDS011;24910;53.248;-6.134;2022-12-18T00:47:57;60.08;;;30.52;;
38683;SDS011;24910;53.248;-6.134;2022-12-18T00:50:25;63.67;;;33.88;;
38683;SDS011;24910;53.248;-6.134;2022-12-18T00:52:55;64.60;;;37.70;;
38683;SDS011;24910;53.248;-6.134;2022-12-18T00:55:24;65.82;;;34.88;;
38683;SDS011;24910;53.248;-6.134;2022-12-18T00:57:53;68.15;;;39.13;;
38683;SDS011;24910;53.248;-6.134;2022-12-18T01:00:22;65.75;;;38.80;;
38683;SDS011;24910;53.248;-6.134;2022-12-18T01:02:51;60.97;;;35.28;;
38683;SDS011;24910;53.248;-6.134;2022-12-18T01:05:21;60.63;;;31.98;;
38683;SDS011;24910;53.248;-6.134;2022-12-18T01:07:51;49.70;;;28.17;;
38683;SDS011;24910;53.248;-6.134;2022-12-18T01:10:20;51.67;;;27.13;;
38683;SDS011;24910;53.248;-6.134;2022-12-18T01:12:49;47.72;;;25.48;;
38683;SDS011;24910;53.248;-6.134;2022-12-18T01:15:18;33.05;;;17.17;;
38683;SDS011;24910;53.248;-6.134;2022-12-18T01:17:47;23.85;;;11.30;;
38683;SDS011;24910;53.248;-6.134;2022-12-18T01:20:16;17.55;;;8.63;;
38683;SDS011;24910;53.248;-6.134;2022-12-18T01:22:47;18.90;;;8.63;;
38683;SDS011;24910;53.248;-6.134;2022-12-18T01:25:16;14.13;;;5.80;;
38683;SDS011;24910;53.248;-6.134;2022-12-18T01:27:45;12.75;;;4.90;;
38683;SDS011;24910;53.248;-6.134;2022-12-18T01:30:14;18.35;;;3.88;;
38683;SDS011;24910;53.248;-6.134;2022-12-18T01:32:43;13.90;;;3.50;;
38683;SDS011;24910;53.248;-6.134;2022-12-18T01:35:12;8.73;;;3.35;;
38683;SDS011;24910;53.248;-6.134;2022-12-18T01:37:41;8.45;;;3.15;;
38683;SDS011;24910;53.248;-6.134;2022-12-18T01:40:11;6.93;;;2.60;;
38683;SDS011;24910;53.248;-6.134;2022-12-18T01:42:41;7.35;;;2.50;;
38683;SDS011;24910;53.248;-6.134;2022-12-18T01:45:22;11.97;;;2.87;;
38683;SDS011;24910;53.248;-6.134;2022-12-18T01:47:56;16.83;;;2.55;;
38683;SDS011;24910;53.248;-6.134;2022-12-18T01:50:29;15.15;;;2.30;;
38683;SDS011;24910;53.248;-6.134;2022-12-18T01:53:02;10.00;;;2.22;;
38683;SDS011;24910;53.248;-6.134;2022-12-18T01:55:37;7.68;;;2.50;;
38683;SDS011;24910;53.248;-6.134;2022-12-18T01:58:10;15.98;;;2.20;;
38683;SDS011;24910;53.248;-6.134;2022-12-18T02:00:39;11.45;;;1.92;;
38683;SDS011;24910;53.248;-6.134;2022-12-18T02:03:09;7.15;;;1.73;;
38683;SDS011;24910;53.248;-6.134;2022-12-18T02:05:40;11.57;;;2.65;;
38683;SDS011;24910;53.248;-6.134;2022-12-18T02:08:16;10.32;;;2.17;;
38683;SDS011;24910;53.248;-6.134;2022-12-18T02:10:53;12.60;;;3.20;;
38683;SDS011;24910;53.248;-6.134;2022-12-18T02:13:29;11.70;;;2.08;;
38683;SDS011;24910;53.248;-6.134;2022-12-18T02:16:06;9.30;;;2.10;;
38683;SDS011;24910;53.248;-6.134;2022-12-18T02:18:41;13.45;;;2.60;;
38683;SDS011;24910;53.248;-6.134;2022-12-18T02:21:16;16.33;;;2.47;;
38683;SDS011;24910;53.248;-6.134;2022-12-18T02:23:56;15.18;;;2.78;;
38683;SDS011;24910;53.248;-6.134;2022-12-18T02:26:37;20.73;;;2.85;;
38683;SDS011;24910;53.248;-6.134;2022-12-18T02:29:11;22.00;;;3.10;;
38683;SDS011;24910;53.248;-6.134;2022-12-18T02:31:45;18.15;;;3.03;;
38683;SDS011;24910;53.248;-6.134;2022-12-18T02:34:19;14.70;;;3.20;;
38683;SDS011;24910;53.248;-6.134;2022-12-18T02:36:51;17.05;;;3.25;;
38683;SDS011;24910;53.248;-6.134;2022-12-18T02:39:22;17.02;;;3.17;;
38683;SDS011;24910;53.248;-6.134;2022-12-18T02:42:02;15.93;;;3.33;;
38683;SDS011;24910;53.248;-6.134;2022-12-18T02:44:35;15.55;;;3.75;;
38683;SDS011;24910;53.248;-6.134;2022-12-18T02:47:13;15.23;;;3.30;;
38683;SDS011;24910;53.248;-6.134;2022-12-18T02:49:47;19.80;;;3.42;;
38683;SDS011;24910;53.248;-6.134;2022-12-18T02:52:24;16.35;;;3.38;;
38683;SDS011;24910;53.248;-6.134;2022-12-18T02:55:07;15.55;;;3.58;;
38683;SDS011;24910;53.248;-6.134;2022-12-18T02:57:53;20.40;;;3.95;;
38683;SDS011;24910;53.248;-6.134;2022-12-18T03:00:30;21.70;;;4.65;;
38683;SDS011;24910;53.248;-6.134;2022-12-18T03:03:06;21.92;;;4.18;;
38683;SDS011;24910;53.248;-6.134;2022-12-18T03:05:40;19.20;;;4.05;;
38683;SDS011;24910;53.248;-6.134;2022-12-18T03:08:14;19.33;;;3.83;;
38683;SDS011;24910;53.248;-6.134;2022-12-18T03:10:49;18.65;;;4.35;;
38683;SDS011;24910;53.248;-6.134;2022-12-18T03:13:25;16.77;;;3.80;;
38683;SDS011;24910;53.248;-6.134;2022-12-18T03:16:00;14.90;;;4.28;;
38683;SDS011;24910;53.248;-6.134;2022-12-18T03:18:32;11.77;;;4.28;;
38683;SDS011;24910;53.248;-6.134;2022-12-18T03:21:05;17.73;;;5.15;;
38683;SDS011;24910;53.248;-6.134;2022-12-18T03:23:39;21.25;;;5.47;;
38683;SDS011;24910;53.248;-6.134;2022-12-18T03:26:14;19.48;;;5.38;;
38683;SDS011;24910;53.248;-6.134;2022-12-18T03:28:51;13.63;;;5.00;;
38683;SDS011;24910;53.248;-6.134;2022-12-18T03:31:24;22.23;;;5.30;;
38683;SDS011;24910;53.248;-6.134;2022-12-18T03:33:57;23.67;;;6.53;;
38683;SDS011;24910;53.248;-6.134;2022-12-18T03:39:07;24.35;;;6.55;;
38683;SDS011;24910;53.248;-6.134;2022-12-18T03:44:32;23.90;;;6.75;;
38683;SDS011;24910;53.248;-6.134;2022-12-18T03:47:08;21.52;;;8.75;;
38683;SDS011;24910;53.248;-6.134;2022-12-18T03:49:44;24.13;;;8.48;;
38683;SDS011;24910;53.248;-6.134;2022-12-18T03:52:20;21.58;;;7.93;;
38683;SDS011;24910;53.248;-6.134;2022-12-18T03:54:55;26.45;;;8.52;;
38683;SDS011;24910;53.248;-6.134;2022-12-18T03:57:27;31.42;;;9.20;;
38683;SDS011;24910;53.248;-6.134;2022-12-18T04:00:01;31.48;;;9.13;;
38683;SDS011;24910;53.248;-6.134;2022-12-18T04:02:41;23.67;;;9.02;;
38683;SDS011;24910;53.248;-6.134;2022-12-18T04:05:21;32.03;;;10.15;;
38683;SDS011;24910;53.248;-6.134;2022-12-18T04:07:52;28.75;;;9.88;;
38683;SDS011;24910;53.248;-6.134;2022-12-18T04:10:25;26.27;;;10.68;;
38683;SDS011;24910;53.248;-6.134;2022-12-18T04:12:57;29.23;;;10.88;;
38683;SDS011;24910;53.248;-6.134;2022-12-18T04:15:28;32.47;;;9.90;;
38683;SDS011;24910;53.248;-6.134;2022-12-18T04:20:35;27.27;;;9.70;;
38683;SDS011;24910;53.248;-6.134;2022-12-18T04:23:04;30.02;;;10.05;;
38683;SDS011;24910;53.248;-6.134;2022-12-18T04:25:34;24.80;;;9.80;;
38683;SDS011;24910;53.248;-6.134;2022-12-18T04:28:12;36.25;;;10.00;;
38683;SDS011;24910;53.248;-6.134;2022-12-18T04:30:43;24.17;;;9.75;;
38683;SDS011;24910;53.248;-6.134;2022-12-18T04:33:14;33.67;;;10.50;;
38683;SDS011;24910;53.248;-6.134;2022-12-18T04:35:46;32.65;;;11.00;;
38683;SDS011;24910;53.248;-6.134;2022-12-18T04:38:15;37.00;;;10.18;;
38683;SDS011;24910;53.248;-6.134;2022-12-18T04:40:45;34.58;;;10.35;;
38683;SDS011;24910;53.248;-6.134;2022-12-18T04:43:21;38.50;;;10.10;;
38683;SDS011;24910;53.248;-6.134;2022-12-18T04:45:52;37.25;;;10.95;;
38683;SDS011;24910;53.248;-6.134;2022-12-18T04:48:21;40.60;;;9.93;;
38683;SDS011;24910;53.248;-6.134;2022-12-18T04:50:50;28.83;;;10.27;;
38683;SDS011;24910;53.248;-6.134;2022-12-18T04:53:19;31.35;;;9.65;;
38683;SDS011;24910;53.248;-6.134;2022-12-18T04:55:48;30.52;;;9.95;;
38683;SDS011;24910;53.248;-6.134;2022-12-18T04:58:17;33.33;;;9.30;;
38683;SDS011;24910;53.248;-6.134;2022-12-18T05:00:46;33.85;;;9.77;;
38683;SDS011;24910;53.248;-6.134;2022-12-18T05:03:16;33.25;;;10.13;;
38683;SDS011;24910;53.248;-6.134;2022-12-18T05:05:48;32.15;;;9.02;;
38683;SDS011;24910;53.248;-6.134;2022-12-18T05:08:18;33.08;;;8.35;;
38683;SDS011;24910;53.248;-6.134;2022-12-18T05:10:47;31.02;;;7.95;;
38683;SDS011;24910;53.248;-6.134;2022-12-18T05:13:16;30.05;;;8.35;;
38683;SDS011;24910;53.248;-6.134;2022-12-18T05:15:50;26.65;;;8.35;;
38683;SDS011;24910;53.248;-6.134;2022-12-18T05:18:22;30.17;;;9.80;;
38683;SDS011;24910;53.248;-6.134;2022-12-18T05:20:51;33.90;;;9.35;;
38683;SDS011;24910;53.248;-6.134;2022-12-18T05:23:22;26.85;;;9.18;;
38683;SDS011;24910;53.248;-6.134;2022-12-18T05:25:53;32.25;;;9.13;;
38683;SDS011;24910;53.248;-6.134;2022-12-18T05:28:23;28.52;;;8.32;;
38683;SDS011;24910;53.248;-6.134;2022-12-18T05:30:54;39.40;;;8.47;;
38683;SDS011;24910;53.248;-6.134;2022-12-18T05:33:28;26.70;;;8.68;;
38683;SDS011;24910;53.248;-6.134;2022-12-18T05:35:58;37.13;;;8.70;;
38683;SDS011;24910;53.248;-6.134;2022-12-18T05:38:32;30.27;;;7.80;;
38683;SDS011;24910;53.248;-6.134;2022-12-18T05:41:03;33.83;;;8.30;;
38683;SDS011;24910;53.248;-6.134;2022-12-18T05:43:33;25.92;;;7.45;;
38683;SDS011;24910;53.248;-6.134;2022-12-18T05:46:04;28.13;;;8.80;;
38683;SDS011;24910;53.248;-6.134;2022-12-18T05:48:35;21.90;;;7.43;;
38683;SDS011;24910;53.248;-6.134;2022-12-18T05:51:05;32.83;;;8.87;;
38683;SDS011;24910;53.248;-6.134;2022-12-18T05:53:36;28.70;;;7.93;;
38683;SDS011;24910;53.248;-6.134;2022-12-18T05:56:07;30.43;;;8.30;;
38683;SDS011;24910;53.248;-6.134;2022-12-18T05:58:36;34.60;;;8.85;;
38683;SDS011;24910;53.248;-6.134;2022-12-18T06:01:07;33.90;;;8.98;;
38683;SDS011;24910;53.248;-6.134;2022-12-18T06:03:39;35.50;;;9.25;;
38683;SDS011;24910;53.248;-6.134;2022-12-18T06:06:12;37.50;;;8.85;;
38683;SDS011;24910;53.248;-6.134;2022-12-18T06:08:42;35.35;;;9.52;;
38683;SDS011;24910;53.248;-6.134;2022-12-18T06:11:13;33.70;;;9.20;;
38683;SDS011;24910;53.248;-6.134;2022-12-18T06:13:44;31.13;;;9.20;;
38683;SDS011;24910;53.248;-6.134;2022-12-18T06:16:13;31.80;;;9.35;;
38683;SDS011;24910;53.248;-6.134;2022-12-18T06:18:44;33.97;;;9.15;;
38683;SDS011;24910;53.248;-6.134;2022-12-18T06:21:13;34.47;;;10.00;;
38683;SDS011;24910;53.248;-6.134;2022-12-18T06:23:42;25.50;;;8.10;;
38683;SDS011;24910;53.248;-6.134;2022-12-18T06:26:12;23.60;;;7.55;;
38683;SDS011;24910;53.248;-6.134;2022-12-18T06:28:41;25.55;;;7.07;;
38683;SDS011;24910;53.248;-6.134;2022-12-18T06:31:11;22.20;;;6.47;;
38683;SDS011;24910;53.248;-6.134;2022-12-18T06:33:40;25.30;;;6.78;;
38683;SDS011;24910;53.248;-6.134;2022-12-18T06:36:11;17.20;;;5.70;;
38683;SDS011;24910;53.248;-6.134;2022-12-18T06:38:41;15.27;;;5.80;;
38683;SDS011;24910;53.248;-6.134;2022-12-18T06:41:12;21.93;;;5.47;;
38683;SDS011;24910;53.248;-6.134;2022-12-18T06:43:42;23.30;;;5.50;;
38683;SDS011;24910;53.248;-6.134;2022-12-18T06:46:12;16.13;;;4.97;;
38683;SDS011;24910;53.248;-6.134;2022-12-18T06:48:41;16.20;;;5.20;;
38683;SDS011;24910;53.248;-6.134;2022-12-18T06:51:12;19.75;;;4.93;;
38683;SDS011;24910;53.248;-6.134;2022-12-18T06:53:43;24.88;;;5.05;;
38683;SDS011;24910;53.248;-6.134;2022-12-18T06:56:12;14.90;;;4.70;;
38683;SDS011;24910;53.248;-6.134;2022-12-18T06:58:41;15.05;;;4.40;;
38683;SDS011;24910;53.248;-6.134;2022-12-18T07:01:11;21.00;;;4.53;;
38683;SDS011;24910;53.248;-6.134;2022-12-18T07:03:41;19.55;;;5.30;;
38683;SDS011;24910;53.248;-6.134;2022-12-18T07:06:15;23.65;;;5.28;;
38683;SDS011;24910;53.248;-6.134;2022-12-18T07:08:45;16.88;;;4.70;;
38683;SDS011;24910;53.248;-6.134;2022-12-18T07:11:15;12.63;;;3.95;;
38683;SDS011;24910;53.248;-6.134;2022-12-18T07:13:45;20.48;;;3.72;;
38683;SDS011;24910;53.248;-6.134;2022-12-18T07:16:15;13.38;;;4.35;;
38683;SDS011;24910;53.248;-6.134;2022-12-18T07:18:51;15.75;;;4.28;;
38683;SDS011;24910;53.248;-6.134;2022-12-18T07:21:24;24.23;;;5.30;;
38683;SDS011;24910;53.248;-6.134;2022-12-18T07:23:53;21.17;;;5.40;;
38683;SDS011;24910;53.248;-6.134;2022-12-18T07:26:23;26.70;;;5.93;;
38683;SDS011;24910;53.248;-6.134;2022-12-18T07:28:54;20.85;;;5.45;;
38683;SDS011;24910;53.248;-6.134;2022-12-18T07:31:24;20.15;;;6.78;;
38683;SDS011;24910;53.248;-6.134;2022-12-18T07:33:55;24.08;;;6.90;;
38683;SDS011;24910;53.248;-6.134;2022-12-18T07:36:25;30.77;;;7.05;;
38683;SDS011;24910;53.248;-6.134;2022-12-18T07:38:54;26.80;;;7.13;;
38683;SDS011;24910;53.248;-6.134;2022-12-18T07:41:24;24.27;;;7.30;;
38683;SDS011;24910;53.248;-6.134;2022-12-18T07:43:53;24.00;;;6.85;;
38683;SDS011;24910;53.248;-6.134;2022-12-18T07:46:22;19.92;;;6.82;;
38683;SDS011;24910;53.248;-6.134;2022-12-18T07:48:51;18.83;;;6.40;;
38683;SDS011;24910;53.248;-6.134;2022-12-18T07:51:20;25.83;;;6.93;;
38683;SDS011;24910;53.248;-6.134;2022-12-18T07:53:50;24.70;;;8.18;;
38683;SDS011;24910;53.248;-6.134;2022-12-18T07:56:20;28.17;;;7.97;;
38683;SDS011;24910;53.248;-6.134;2022-12-18T07:58:55;28.05;;;8.18;;
38683;SDS011;24910;53.248;-6.134;2022-12-18T08:01:24;33.58;;;8.13;;
38683;SDS011;24910;53.248;-6.134;2022-12-18T08:03:54;27.05;;;8.15;;
38683;SDS011;24910;53.248;-6.134;2022-12-18T08:06:23;29.58;;;8.43;;
38683;SDS011;24910;53.248;-6.134;2022-12-18T08:08:53;35.85;;;9.80;;
38683;SDS011;24910;53.248;-6.134;2022-12-18T08:11:24;26.50;;;8.07;;
38683;SDS011;24910;53.248;-6.134;2022-12-18T08:13:54;28.73;;;8.20;;
38683;SDS011;24910;53.248;-6.134;2022-12-18T08:16:23;31.27;;;8.82;;
38683;SDS011;24910;53.248;-6.134;2022-12-18T08:18:53;26.40;;;8.60;;
38683;SDS011;24910;53.248;-6.134;2022-12-18T08:21:22;29.80;;;9.23;;
38683;SDS011;24910;53.248;-6.134;2022-12-18T08:23:55;30.60;;;9.85;;
38683;SDS011;24910;53.248;-6.134;2022-12-18T08:26:27;27.45;;;9.52;;
38683;SDS011;24910;53.248;-6.134;2022-12-18T08:28:58;31.95;;;10.05;;
38683;SDS011;24910;53.248;-6.134;2022-12-18T08:31:28;35.40;;;9.77;;
38683;SDS011;24910;53.248;-6.134;2022-12-18T08:33:58;36.45;;;11.13;;
38683;SDS011;24910;53.248;-6.134;2022-12-18T08:36:27;33.47;;;11.13;;
38683;SDS011;24910;53.248;-6.134;2022-12-18T08:38:57;35.30;;;9.90;;
38683;SDS011;24910;53.248;-6.134;2022-12-18T08:41:28;34.42;;;10.77;;
38683;SDS011;24910;53.248;-6.134;2022-12-18T08:44:00;34.35;;;11.05;;
38683;SDS011;24910;53.248;-6.134;2022-12-18T08:46:47;29.95;;;9.55;;
38683;SDS011;24910;53.248;-6.134;2022-12-18T08:49:15;28.65;;;9.70;;
38683;SDS011;24910;53.248;-6.134;2022-12-18T08:51:44;32.05;;;10.65;;
38683;SDS011;24910;53.248;-6.134;2022-12-18T08:54:15;33.88;;;11.48;;
38683;SDS011;24910;53.248;-6.134;2022-12-18T08:56:44;37.40;;;11.07;;
38683;SDS011;24910;53.248;-6.134;2022-12-18T08:59:13;34.38;;;11.20;;
38683;SDS011;24910;53.248;-6.134;2022-12-18T09:01:46;30.27;;;10.73;;
38683;SDS011;24910;53.248;-6.134;2022-12-18T09:04:16;35.80;;;11.73;;
38683;SDS011;24910;53.248;-6.134;2022-12-18T09:06:45;35.13;;;11.38;;
38683;SDS011;24910;53.248;-6.134;2022-12-18T09:09:15;37.28;;;10.90;;
38683;SDS011;24910;53.248;-6.134;2022-12-18T09:11:46;36.55;;;11.82;;
38683;SDS011;24910;53.248;-6.134;2022-12-18T09:14:15;33.33;;;11.88;;
38683;SDS011;24910;53.248;-6.134;2022-12-18T09:16:44;42.63;;;12.20;;
38683;SDS011;24910;53.248;-6.134;2022-12-18T09:19:13;31.67;;;10.85;;
38683;SDS011;24910;53.248;-6.134;2022-12-18T09:21:42;29.05;;;10.93;;
38683;SDS011;24910;53.248;-6.134;2022-12-18T09:24:16;38.60;;;11.82;;
38683;SDS011;24910;53.248;-6.134;2022-12-18T09:26:45;37.38;;;12.02;;
38683;SDS011;24910;53.248;-6.134;2022-12-18T09:29:16;46.15;;;12.57;;
38683;SDS011;24910;53.248;-6.134;2022-12-18T09:31:49;39.92;;;11.65;;
38683;SDS011;24910;53.248;-6.134;2022-12-18T09:34:18;32.65;;;10.98;;
38683;SDS011;24910;53.248;-6.134;2022-12-18T09:36:48;33.45;;;10.43;;
38683;SDS011;24910;53.248;-6.134;2022-12-18T09:39:19;32.88;;;9.80;;
38683;SDS011;24910;53.248;-6.134;2022-12-18T09:41:50;31.17;;;10.20;;
38683;SDS011;24910;53.248;-6.134;2022-12-18T09:44:25;36.22;;;10.63;;
38683;SDS011;24910;53.248;-6.134;2022-12-18T09:47:00;32.75;;;10.48;;
38683;SDS011;24910;53.248;-6.134;2022-12-18T09:49:34;43.85;;;10.82;;
38683;SDS011;24910;53.248;-6.134;2022-12-18T09:52:09;37.22;;;10.90;;
38683;SDS011;24910;53.248;-6.134;2022-12-18T09:54:45;29.60;;;10.10;;
38683;SDS011;24910;53.248;-6.134;2022-12-18T09:57:18;37.65;;;10.88;;
38683;SDS011;24910;53.248;-6.134;2022-12-18T09:59:50;28.75;;;10.90;;
38683;SDS011;24910;53.248;-6.134;2022-12-18T10:02:23;34.10;;;11.02;;
38683;SDS011;24910;53.248;-6.134;2022-12-18T10:05:00;33.53;;;11.15;;
38683;SDS011;24910;53.248;-6.134;2022-12-18T10:07:34;37.88;;;11.90;;
38683;SDS011;24910;53.248;-6.134;2022-12-18T10:10:21;41.38;;;12.05;;
38683;SDS011;24910;53.248;-6.134;2022-12-18T10:13:02;34.70;;;12.13;;
38683;SDS011;24910;53.248;-6.134;2022-12-18T10:15:39;48.17;;;12.02;;
38683;SDS011;24910;53.248;-6.134;2022-12-18T10:18:20;33.25;;;13.23;;
38683;SDS011;24910;53.248;-6.134;2022-12-18T10:20:58;50.72;;;15.43;;
38683;SDS011;24910;53.248;-6.134;2022-12-18T10:23:33;33.75;;;12.25;;
38683;SDS011;24910;53.248;-6.134;2022-12-18T10:26:16;51.70;;;18.48;;
38683;SDS011;24910;53.248;-6.134;2022-12-18T10:31:15;53.20;;;19.48;;
38683;SDS011;24910;53.248;-6.134;2022-12-18T10:33:46;40.75;;;13.90;;
38683;SDS011;24910;53.248;-6.134;2022-12-18T10:36:15;50.78;;;14.40;;
38683;SDS011;24910;53.248;-6.134;2022-12-18T10:38:44;33.95;;;11.23;;
38683;SDS011;24910;53.248;-6.134;2022-12-18T10:41:24;37.05;;;11.65;;
38683;SDS011;24910;53.248;-6.134;2022-12-18T10:44:12;40.97;;;12.60;;
38683;SDS011;24910;53.248;-6.134;2022-12-18T10:46:45;44.78;;;13.07;;
38683;SDS011;24910;53.248;-6.134;2022-12-18T10:49:21;38.08;;;12.35;;
38683;SDS011;24910;53.248;-6.134;2022-12-18T10:51:52;45.72;;;12.52;;
38683;SDS011;24910;53.248;-6.134;2022-12-18T10:54:46;45.23;;;13.23;;
38683;SDS011;24910;53.248;-6.134;2022-12-18T10:57:28;41.40;;;13.25;;
38683;SDS011;24910;53.248;-6.134;2022-12-18T11:00:01;37.85;;;12.90;;
38683;SDS011;24910;53.248;-6.134;2022-12-18T11:02:53;34.78;;;12.15;;
38683;SDS011;24910;53.248;-6.134;2022-12-18T11:05:26;46.78;;;12.90;;
38683;SDS011;24910;53.248;-6.134;2022-12-18T11:07:58;38.67;;;12.68;;
38683;SDS011;24910;53.248;-6.134;2022-12-18T11:10:29;37.20;;;13.13;;
38683;SDS011;24910;53.248;-6.134;2022-12-18T11:13:11;37.25;;;11.90;;
38683;SDS011;24910;53.248;-6.134;2022-12-18T11:15:45;37.50;;;11.50;;
38683;SDS011;24910;53.248;-6.134;2022-12-18T11:18:18;45.70;;;12.10;;
38683;SDS011;24910;53.248;-6.134;2022-12-18T11:20:52;45.58;;;11.32;;
38683;SDS011;24910;53.248;-6.134;2022-12-18T11:23:25;36.13;;;10.75;;
38683;SDS011;24910;53.248;-6.134;2022-12-18T11:25:56;41.30;;;10.73;;
38683;SDS011;24910;53.248;-6.134;2022-12-18T11:28:29;31.48;;;10.35;;
38683;SDS011;24910;53.248;-6.134;2022-12-18T11:31:18;37.88;;;9.60;;
38683;SDS011;24910;53.248;-6.134;2022-12-18T11:33:52;31.10;;;9.93;;
38683;SDS011;24910;53.248;-6.134;2022-12-18T11:36:46;27.48;;;9.35;;
38683;SDS011;24910;53.248;-6.134;2022-12-18T11:39:17;33.90;;;9.48;;
38683;SDS011;24910;53.248;-6.134;2022-12-18T11:41:50;35.47;;;9.30;;
38683;SDS011;24910;53.248;-6.134;2022-12-18T11:44:42;27.45;;;8.10;;
38683;SDS011;24910;53.248;-6.134;2022-12-18T11:47:17;28.08;;;8.90;;
38683;SDS011;24910;53.248;-6.134;2022-12-18T11:49:53;39.85;;;10.80;;
38683;SDS011;24910;53.248;-6.134;2022-12-18T11:52:25;25.00;;;8.50;;
38683;SDS011;24910;53.248;-6.134;2022-12-18T11:55:00;29.52;;;9.80;;
38683;SDS011;24910;53.248;-6.134;2022-12-18T11:57:39;27.98;;;9.23;;
38683;SDS011;24910;53.248;-6.134;2022-12-18T12:00:16;28.27;;;8.63;;
38683;SDS011;24910;53.248;-6.134;2022-12-18T12:05:42;23.38;;;5.80;;
38683;SDS011;24910;53.248;-6.134;2022-12-18T12:08:20;19.45;;;5.80;;
38683;SDS011;24910;53.248;-6.134;2022-12-18T12:10:58;22.27;;;6.13;;
38683;SDS011;24910;53.248;-6.134;2022-12-18T12:13:37;22.77;;;5.72;;
38683;SDS011;24910;53.248;-6.134;2022-12-18T12:16:17;14.73;;;6.38;;
38683;SDS011;24910;53.248;-6.134;2022-12-18T12:19:00;25.38;;;6.25;;
38683;SDS011;24910;53.248;-6.134;2022-12-18T12:21:37;25.80;;;6.45;;
38683;SDS011;24910;53.248;-6.134;2022-12-18T12:24:16;22.13;;;5.40;;
38683;SDS011;24910;53.248;-6.134;2022-12-18T12:26:57;21.20;;;5.15;;
38683;SDS011;24910;53.248;-6.134;2022-12-18T12:29:37;23.63;;;5.43;;
38683;SDS011;24910;53.248;-6.134;2022-12-18T12:34:54;32.90;;;6.22;;
38683;SDS011;24910;53.248;-6.134;2022-12-18T12:37:38;26.00;;;4.68;;
38683;SDS011;24910;53.248;-6.134;2022-12-18T12:40:17;29.30;;;5.20;;
38683;SDS011;24910;53.248;-6.134;2022-12-18T12:43:11;24.85;;;5.05;;
38683;SDS011;24910;53.248;-6.134;2022-12-18T12:45:52;19.65;;;5.55;;
38683;SDS011;24910;53.248;-6.134;2022-12-18T12:48:31;29.13;;;5.85;;
38683;SDS011;24910;53.248;-6.134;2022-12-18T12:51:07;22.38;;;5.18;;
38683;SDS011;24910;53.248;-6.134;2022-12-18T12:53:41;18.85;;;4.20;;
38683;SDS011;24910;53.248;-6.134;2022-12-18T12:56:12;15.90;;;4.65;;
38683;SDS011;24910;53.248;-6.134;2022-12-18T12:58:46;20.02;;;4.30;;
38683;SDS011;24910;53.248;-6.134;2022-12-18T13:01:25;19.33;;;4.53;;
38683;SDS011;24910;53.248;-6.134;2022-12-18T13:04:06;17.83;;;4.60;;
38683;SDS011;24910;53.248;-6.134;2022-12-18T13:06:45;24.02;;;6.20;;
38683;SDS011;24910;53.248;-6.134;2022-12-18T13:09:18;28.27;;;5.47;;
38683;SDS011;24910;53.248;-6.134;2022-12-18T13:11:48;18.98;;;4.93;;
38683;SDS011;24910;53.248;-6.134;2022-12-18T13:14:35;15.40;;;4.38;;
38683;SDS011;24910;53.248;-6.134;2022-12-18T13:22:48;28.67;;;6.78;;
38683;SDS011;24910;53.248;-6.134;2022-12-18T13:25:28;21.90;;;5.57;;
38683;SDS011;24910;53.248;-6.134;2022-12-18T13:28:04;32.25;;;11.05;;
38683;SDS011;24910;53.248;-6.134;2022-12-18T13:36:38;22.02;;;5.70;;
38683;SDS011;24910;53.248;-6.134;2022-12-18T13:48:23;18.35;;;5.97;;
38683;SDS011;24910;53.248;-6.134;2022-12-18T13:50:56;18.35;;;6.07;;
38683;SDS011;24910;53.248;-6.134;2022-12-18T13:53:29;18.60;;;6.13;;
38683;SDS011;24910;53.248;-6.134;2022-12-18T13:56:03;16.70;;;5.28;;
38683;SDS011;24910;53.248;-6.134;2022-12-18T13:58:33;30.50;;;10.98;;
38683;SDS011;24910;53.248;-6.134;2022-12-18T14:01:02;21.63;;;8.80;;
38683;SDS011;24910;53.248;-6.134;2022-12-18T14:03:31;28.40;;;9.43;;
38683;SDS011;24910;53.248;-6.134;2022-12-18T14:06:02;34.70;;;13.07;;
38683;SDS011;24910;53.248;-6.134;2022-12-18T14:08:37;30.20;;;10.07;;
38683;SDS011;24910;53.248;-6.134;2022-12-18T14:11:11;26.42;;;8.93;;
38683;SDS011;24910;53.248;-6.134;2022-12-18T14:13:49;24.75;;;6.85;;
38683;SDS011;24910;53.248;-6.134;2022-12-18T14:16:18;14.07;;;4.93;;
38683;SDS011;24910;53.248;-6.134;2022-12-18T14:18:48;16.17;;;6.38;;
38683;SDS011;24910;53.248;-6.134;2022-12-18T14:21:31;19.95;;;6.32;;
38683;SDS011;24910;53.248;-6.134;2022-12-18T14:24:13;23.92;;;8.80;;
38683;SDS011;24910;53.248;-6.134;2022-12-18T14:26:46;36.05;;;11.02;;
38683;SDS011;24910;53.248;-6.134;2022-12-18T14:29:21;22.15;;;8.40;;
38683;SDS011;24910;53.248;-6.134;2022-12-18T14:32:04;28.05;;;10.48;;
38683;SDS011;24910;53.248;-6.134;2022-12-18T14:34:42;30.02;;;10.07;;
38683;SDS011;24910;53.248;-6.134;2022-12-18T14:37:13;32.45;;;9.95;;
38683;SDS011;24910;53.248;-6.134;2022-12-18T14:39:57;24.15;;;6.07;;
38683;SDS011;24910;53.248;-6.134;2022-12-18T14:42:36;19.27;;;5.53;;
38683;SDS011;24910;53.248;-6.134;2022-12-18T14:48:08;20.67;;;7.80;;
38683;SDS011;24910;53.248;-6.134;2022-12-18T14:50:56;28.42;;;6.60;;
38683;SDS011;24910;53.248;-6.134;2022-12-18T14:53:32;23.08;;;6.25;;
38683;SDS011;24910;53.248;-6.134;2022-12-18T14:56:12;25.65;;;7.15;;
38683;SDS011;24910;53.248;-6.134;2022-12-18T14:58:45;24.70;;;5.80;;
38683;SDS011;24910;53.248;-6.134;2022-12-18T15:01:19;35.50;;;10.57;;
38683;SDS011;24910;53.248;-6.134;2022-12-18T15:03:51;30.42;;;7.75;;
38683;SDS011;24910;53.248;-6.134;2022-12-18T15:06:25;35.33;;;9.40;;
38683;SDS011;24910;53.248;-6.134;2022-12-18T15:08:57;25.73;;;7.28;;
38683;SDS011;24910;53.248;-6.134;2022-12-18T15:11:31;22.55;;;7.28;;
38683;SDS011;24910;53.248;-6.134;2022-12-18T15:14:35;18.42;;;7.78;;
38683;SDS011;24910;53.248;-6.134;2022-12-18T15:17:14;33.72;;;8.90;;
38683;SDS011;24910;53.248;-6.134;2022-12-18T15:19:47;25.25;;;8.30;;
38683;SDS011;24910;53.248;-6.134;2022-12-18T15:22:19;30.98;;;8.13;;
38683;SDS011;24910;53.248;-6.134;2022-12-18T15:24:51;35.92;;;7.10;;
38683;SDS011;24910;53.248;-6.134;2022-12-18T15:27:26;21.77;;;7.00;;
38683;SDS011;24910;53.248;-6.134;2022-12-18T15:30:16;28.13;;;9.25;;
38683;SDS011;24910;53.248;-6.134;2022-12-18T15:32:48;26.17;;;9.63;;
38683;SDS011;24910;53.248;-6.134;2022-12-18T15:35:20;26.37;;;10.30;;